Latest Coastal Weather Observations for Warruwi

IDD60701

Issued at 6:11 am CST Saturday 2 July 2016 (issued every 10 minutes, with the page automatically refreshed every 10 minutes)

About coastal observations | Map of coastal stations | Coastal observations for NT | Marine services | Other Formats
Station Details ID: 014401 Name: WARRUWI AIRPORT Lat: -11.65 Lon: 133.38 Height: 19.2 m
Data from the previous 72 hours. | See also: Recent months at Warruwi
Date/Time
CST
Temp
°C
Wind Pressure Rain since
9am
mm
Weather Cloud Vis
km
Sea
Height
m
Swell
Dir  Spd
kts
Gust
kts
hPa Trend Height
m
Period
s
Dir
02/06:00am 23.1 SE 10 15 1015.7 - 0.0 - - - - - - -
02/05:30am 23.4 ESE 11 16 1015.6 - 0.0 - - - - - - -
02/05:00am 23.7 ESE 11 18 1015.5 - 0.0 - - - - - - -
02/04:30am 23.7 ESE 9 14 1015.5 - 0.0 - - - - - - -
02/04:00am 24.0 ESE 10 14 1015.7 - 0.0 - - - - - - -
02/03:30am 24.0 SE 10 18 1015.6 - 0.0 - - - - - - -
02/03:00am 24.3 SE 10 15 1015.7 - 0.0 - - - - - - -
02/02:30am 24.5 SE 11 17 1016.0 - 0.0 - - - - - - -
02/02:00am 24.9 SE 13 19 1016.2 - 0.0 - - - - - - -
02/01:30am 25.2 ESE 12 19 1016.2 - 0.0 - - - - - - -
02/01:00am 25.6 SE 11 18 1016.1 - 0.0 - - - - - - -
02/12:30am 26.0 ESE 15 22 1016.0 - 0.0 - - - - - - -
02/12:00am 26.3 ESE 16 23 1015.8 - 0.0 - - - - - - -
 
Date/Time
CST
Temp
°C
Wind Pressure Rain since
9am
mm
Weather Cloud Vis
km
Sea
Height
m
Swell
Dir  Spd
kts
Gust
kts
hPa Trend Height
m
Period
s
Dir
01/11:30pm 26.6 ESE 16 22 1015.8 - 0.0 - - - - - - -
01/11:00pm 26.8 ESE 14 20 1015.8 - 0.0 - - - - - - -
01/10:30pm 27.3 ESE 12 19 1015.7 - 0.0 - - - - - - -
01/10:00pm 27.0 ESE 11 17 1015.4 - 0.0 - - - - - - -
01/09:30pm 27.3 E 12 17 1015.0 - 0.0 - - - - - - -
01/09:00pm 27.3 E 11 16 1014.7 - 0.0 - - - - - - -
01/08:30pm 27.3 E 10 14 1014.4 - 0.0 - - - - - - -
01/08:00pm 27.2 E 9 14 1014.1 - 0.0 - - - - - - -
01/07:30pm 27.1 E 8 13 1013.7 - 0.0 - - - - - - -
01/07:00pm 27.1 E 8 11 1013.5 - 0.0 - - - - - - -
01/06:30pm 27.1 E 8 13 1013.3 - 0.0 - - - - - - -
01/06:00pm 27.4 E 7 11 1013.0 - 0.0 - - - - - - -
01/05:30pm 27.9 ENE 8 15 1012.7 - 0.0 - - - - - - -
01/05:00pm 28.4 ENE 8 16 1012.7 - 0.0 - - - - - - -
01/04:30pm 28.2 ENE 10 18 1012.6 - 0.0 - - - - - - -
01/04:00pm 28.2 ENE 11 17 1012.7 - 0.0 - - - - - - -
01/03:30pm 28.5 E 10 18 1012.9 - 0.0 - - - - - - -
01/03:00pm 28.7 E 11 17 1013.1 - 0.0 - - - - - - -
01/02:30pm 28.8 E 12 20 1013.3 - 0.0 - - - - - - -
01/02:00pm 29.0 E 14 19 1013.6 - 0.0 - - - - - - -
01/01:30pm 28.7 E 13 19 1014.0 - 0.0 - - - - - - -
01/01:00pm 29.3 E 15 23 1014.3 - 0.0 - - - - - - -
01/12:30pm 29.1 E 15 21 1014.8 - 0.0 - - - - - - -
01/12:00pm 28.7 ESE 14 19 1015.3 - 0.0 - - - - - - -
01/11:30am 27.8 E 15 20 1015.5 - 0.0 - - - - - - -
01/11:00am 28.0 E 15 21 1015.8 - 0.0 - - - - - - -
01/10:30am 27.3 ESE 16 22 1016.0 - 0.0 - - - - - - -
01/10:00am 26.4 ESE 13 19 1016.3 - 0.0 - - - - - - -
01/09:30am 26.3 ESE 12 18 1016.5 - 0.0 - - - - - - -
01/09:00am 25.5 ESE 11 14 1016.4 - 0.0 - - - - - - -
01/08:30am 24.9 ESE 10 14 1016.4 - 0.0 - - - - - - -
01/08:00am 24.1 SE 9 15 1016.1 - 0.0 - - - - - - -
01/07:30am 23.4 SE 9 13 1015.9 - 0.0 - - - - - - -
01/07:00am 23.2 SE 10 14 1015.7 - 0.0 - - - - - - -
01/06:30am 23.5 SE 9 13 1015.4 - 0.0 - - - - - - -
01/06:00am 23.6 ESE 8 12 1015.0 - 0.0 - - - - - - -
01/05:30am 23.8 ESE 8 14 1014.9 - 0.0 - - - - - - -
01/05:00am 23.8 ESE 9 14 1014.4 - 0.0 - - - - - - -
01/04:30am 23.9 SE 9 13 1014.4 - 0.0 - - - - - - -
01/04:00am 24.2 SE 9 14 1014.2 - 0.0 - - - - - - -
01/03:30am 24.6 ESE 12 17 1014.1 - 0.0 - - - - - - -
01/03:00am 24.8 ESE 14 19 1014.2 - 0.0 - - - - - - -
01/02:30am 24.9 ESE 13 17 1014.4 - 0.0 - - - - - - -
01/02:00am 25.3 ESE 13 20 1014.5 - 0.0 - - - - - - -
01/01:30am 25.6 ESE 13 20 1014.7 - 0.0 - - - - - - -
01/01:00am 25.9 ESE 13 18 1014.9 - 0.0 - - - - - - -
01/12:30am 26.3 ESE 12 18 1014.9 - 0.0 - - - - - - -
01/12:00am 26.6 ESE 14 21 1014.9 - 0.0 - - - - - - -
 
Date/Time
CST
Temp
°C
Wind Pressure Rain since
9am
mm
Weather Cloud Vis
km
Sea
Height
m
Swell
Dir  Spd
kts
Gust
kts
hPa Trend Height
m
Period
s
Dir
30/11:30pm 27.0 ESE 12 16 1014.8 - 0.0 - - - - - - -
30/11:00pm 27.4 ESE 11 16 1014.6 - 0.0 - - - - - - -
30/10:30pm 27.6 ESE 11 15 1014.7 - 0.0 - - - - - - -
30/10:00pm 27.3 E 9 13 1014.7 - 0.0 - - - - - - -
30/09:30pm 27.2 E 6 9 1014.7 - 0.0 - - - - - - -
30/09:00pm 27.1 E 6 10 1014.6 - 0.0 - - - - - - -
30/08:30pm 27.2 E 6 12 1014.4 - 0.0 - - - - - - -
30/08:00pm 27.2 E 6 9 1014.0 - 0.0 - - - - - - -
30/07:30pm 27.4 E 8 11 1013.7 - 0.0 - - - - - - -
30/07:00pm 27.4 E 7 10 1013.2 - 0.0 - - - - - - -
30/06:30pm 27.5 E 6 10 1012.9 - 0.0 - - - - - - -
30/06:00pm 27.8 ENE 5 8 1012.7 - 0.0 - - - - - - -
30/05:30pm 28.6 ENE 7 12 1012.3 - 0.0 - - - - - - -
30/05:00pm 29.0 ENE 7 11 1012.1 - 0.0 - - - - - - -
30/04:30pm 29.5 E 7 10 1012.2 - 0.0 - - - - - - -
30/04:00pm 29.6 ENE 8 14 1012.1 - 0.0 - - - - - - -
30/03:30pm 29.8 E 9 13 1012.3 - 0.0 - - - - - - -
30/03:00pm 29.7 ENE 9 16 1012.6 - 0.0 - - - - - - -
30/02:30pm 29.9 ENE 9 14 1012.8 - 0.0 - - - - - - -
30/02:00pm 30.2 E 9 13 1013.2 - 0.0 - - - - - - -
30/01:30pm 30.4 E 9 14 1013.7 - 0.0 - - - - - - -
30/01:00pm 30.6 E 9 13 1014.2 - 0.0 - - - - - - -
30/12:30pm 30.1 E 11 15 1014.7 - 0.0 - - - - - - -
30/12:00pm 30.7 ESE 11 15 1015.0 - 0.0 - - - - - - -
30/11:30am 29.4 SE 13 18 1015.4 - 0.0 - - - - - - -
30/11:00am 29.0 ESE 11 17 1015.8 - 0.0 - - - - - - -
30/10:30am 28.1 ESE 13 18 1016.3 - 0.0 - - - - - - -
30/10:00am 27.9 ESE 11 17 1016.6 - 0.0 - - - - - - -
30/09:30am 27.4 SE 10 16 1016.8 - 0.0 - - - - - - -
30/09:00am 26.3 SE 10 15 1016.8 - 0.0 - - - - - - -
30/08:30am 25.4 SE 8 12 1016.7 - 0.0 - - - - - - -
30/08:00am 24.9 SE 6 9 1016.5 - 0.0 - - - - - - -
30/07:30am 24.2 SE 6 9 1016.1 - 0.0 - - - - - - -
30/07:00am 24.0 SE 6 9 1015.7 - 0.0 - - - - - - -
30/06:30am 24.3 SE 7 11 1015.4 - 0.0 - - - - - - -
30/06:00am 24.6 SE 8 13 1015.2 - 0.0 - - - - - - -
30/05:30am 24.6 SE 6 10 1015.1 - 0.0 - - - - - - -
30/05:00am 24.7 SE 5 7 1014.8 - 0.0 - - - - - - -
30/04:30am 24.9 SE 7 11 1014.7 - 0.0 - - - - - - -
30/04:00am 25.1 SE 7 11 1014.9 - 0.0 - - - - - - -
30/03:30am 25.0 SE 7 10 1014.8 - 0.0 - - - - - - -
30/03:00am 25.1 SE 8 13 1014.9 - 0.0 - - - - - - -
30/02:30am 25.2 SE 8 13 1015.2 - 0.0 - - - - - - -
30/02:00am 25.6 SE 7 12 1015.3 - 0.0 - - - - - - -
30/01:30am 25.8 ESE 8 14 1015.5 - 0.0 - - - - - - -
30/01:00am 26.0 SE 9 13 1015.7 - 0.0 - - - - - - -
30/12:30am 26.2 ESE 9 14 1015.6 - 0.0 - - - - - - -
30/12:00am 26.5 ESE 9 14 1015.7 - 0.0 - - - - - - -
 
Date/Time
CST
Temp
°C
Wind Pressure Rain since
9am
mm
Weather Cloud Vis
km
Sea
Height
m
Swell
Dir  Spd
kts
Gust
kts
hPa Trend Height
m
Period
s
Dir
29/11:30pm 26.6 ESE 9 13 1015.6 - 0.0 - - - - - - -
29/11:00pm 26.8 ESE 7 11 1015.6 - 0.0 - - - - - - -
29/10:30pm 27.1 ESE 7 9 1015.7 - 0.0 - - - - - - -
29/10:00pm 27.0 ESE 6 11 1015.7 - 0.0 - - - - - - -
29/09:30pm 27.0 E 7 11 1015.4 - 0.0 - - - - - - -
29/09:00pm 27.1 E 7 11 1015.2 - 0.0 - - - - - - -
29/08:30pm 27.1 E 7 10 1015.0 - 0.0 - - - - - - -
29/08:00pm 27.1 E 6 11 1014.6 - 0.0 - - - - - - -
29/07:30pm 27.2 E 6 9 1014.4 - 0.0 - - - - - - -
29/07:00pm 27.4 ENE 6 9 1013.9 - 0.0 - - - - - - -
29/06:30pm 27.5 E 7 11 1013.4 - 0.0 - - - - - - -
29/06:00pm 27.8 E 8 11 1013.1 - 0.0 - - - - - - -
29/05:30pm 28.3 E 9 15 1012.8 - 0.0 - - - - - - -
29/05:00pm 29.0 ENE 9 13 1012.5 - 0.0 - - - - - - -
29/04:30pm 29.1 E 8 14 1012.4 - 0.0 - - - - - - -
29/04:00pm 29.2 ENE 10 16 1012.3 - 0.0 - - - - - - -
29/03:30pm 29.9 E 8 12 1012.5 - 0.0 - - - - - - -
29/03:00pm 29.7 E 8 12 1012.7 - 0.0 - - - - - - -
29/02:30pm 30.5 E 8 11 1013.0 - 0.0 - - - - - - -
29/02:00pm 30.9 ESE 10 14 1013.4 - 0.0 - - - - - - -
29/01:30pm 31.2 E 10 14 1013.8 - 0.0 - - - - - - -
29/01:00pm 30.4 ESE 11 17 1014.1 - 0.0 - - - - - - -
29/12:30pm 30.0 ESE 12 17 1014.7 - 0.0 - - - - - - -
29/12:00pm 29.9 ESE 13 20 1015.3 - 0.0 - - - - - - -
29/11:30am 29.2 ESE 13 18 1015.7 - 0.0 - - - - - - -
29/11:00am 28.4 ESE 15 20 1016.0 - 0.0 - - - - - - -
29/10:30am 28.5 SE 12 18 1016.2 - 0.0 - - - - - - -
29/10:00am 28.1 SE 12 18 1016.4 - 0.0 - - - - - - -
29/09:30am 27.3 SE 12 18 1016.5 - 0.0 - - - - - - -
29/09:00am 25.8 SE 12 18 1016.4 - 0.0 - - - - - - -
29/08:30am 25.0 SE 12 18 1016.4 - 0.0 - - - - - - -
29/08:00am 24.6 SE 12 18 1016.3 - 0.0 - - - - - - -
29/07:30am 24.1 SE 12 16 1015.8 - 0.0 - - - - - - -
29/07:00am 24.1 SE 10 15 1015.5 - 0.0 - - - - - - -
29/06:30am 24.4 SE 11 16 1015.2 - 0.0 - - - - - - -

Other Formats:

Comma delimited format used in spreadsheet applications
http://www.bom.gov.au/fwo/IDD60701/IDD60701.94139.axf

JavaScript Object Notation format (JSON) in row-major order
http://www.bom.gov.au/fwo/IDD60701/IDD60701.94139.json